sensor_id;sensor_type;location;lat;lon;timestamp;P1;durP1;ratioP1;P2;durP2;ratioP2
17384;SDS011;8810;48.680;8.894;2023-03-14T00:01:54;2.37;;;1.30;;
17384;SDS011;8810;48.680;8.894;2023-03-14T00:04:20;2.40;;;1.20;;
17384;SDS011;8810;48.680;8.894;2023-03-14T00:06:47;3.67;;;1.30;;
17384;SDS011;8810;48.680;8.894;2023-03-14T00:09:16;2.80;;;1.40;;
17384;SDS011;8810;48.680;8.894;2023-03-14T00:11:43;2.30;;;1.27;;
17384;SDS011;8810;48.680;8.894;2023-03-14T00:14:10;1.40;;;1.20;;
17384;SDS011;8810;48.680;8.894;2023-03-14T00:16:38;1.90;;;1.00;;
17384;SDS011;8810;48.680;8.894;2023-03-14T00:19:04;1.80;;;1.10;;
17384;SDS011;8810;48.680;8.894;2023-03-14T00:21:31;2.00;;;1.03;;
17384;SDS011;8810;48.680;8.894;2023-03-14T00:23:58;2.13;;;0.93;;
17384;SDS011;8810;48.680;8.894;2023-03-14T00:26:26;2.30;;;1.03;;
17384;SDS011;8810;48.680;8.894;2023-03-14T00:28:53;2.13;;;1.00;;
17384;SDS011;8810;48.680;8.894;2023-03-14T00:31:20;1.90;;;1.00;;
17384;SDS011;8810;48.680;8.894;2023-03-14T00:33:48;3.20;;;1.10;;
17384;SDS011;8810;48.680;8.894;2023-03-14T00:36:15;1.00;;;0.73;;
17384;SDS011;8810;48.680;8.894;2023-03-14T00:38:44;1.50;;;1.10;;
17384;SDS011;8810;48.680;8.894;2023-03-14T00:41:12;1.63;;;0.80;;
17384;SDS011;8810;48.680;8.894;2023-03-14T00:43:42;2.63;;;1.03;;
17384;SDS011;8810;48.680;8.894;2023-03-14T00:46:08;2.10;;;1.10;;
17384;SDS011;8810;48.680;8.894;2023-03-14T00:48:35;1.53;;;0.90;;
17384;SDS011;8810;48.680;8.894;2023-03-14T00:51:02;3.70;;;1.40;;
17384;SDS011;8810;48.680;8.894;2023-03-14T00:53:30;2.07;;;0.93;;
17384;SDS011;8810;48.680;8.894;2023-03-14T00:56:01;1.50;;;1.00;;
17384;SDS011;8810;48.680;8.894;2023-03-14T00:58:28;1.87;;;0.97;;
17384;SDS011;8810;48.680;8.894;2023-03-14T01:00:56;0.80;;;0.63;;
17384;SDS011;8810;48.680;8.894;2023-03-14T01:03:23;0.97;;;0.70;;
17384;SDS011;8810;48.680;8.894;2023-03-14T01:05:50;1.40;;;0.80;;
17384;SDS011;8810;48.680;8.894;2023-03-14T01:08:17;3.97;;;0.70;;
17384;SDS011;8810;48.680;8.894;2023-03-14T01:10:44;1.60;;;0.70;;
17384;SDS011;8810;48.680;8.894;2023-03-14T01:13:10;0.90;;;0.60;;
17384;SDS011;8810;48.680;8.894;2023-03-14T01:15:37;1.13;;;0.80;;
17384;SDS011;8810;48.680;8.894;2023-03-14T01:18:05;1.73;;;0.50;;
17384;SDS011;8810;48.680;8.894;2023-03-14T01:20:32;2.20;;;0.50;;
17384;SDS011;8810;48.680;8.894;2023-03-14T01:22:59;0.83;;;0.50;;
17384;SDS011;8810;48.680;8.894;2023-03-14T01:25:25;2.10;;;0.50;;
17384;SDS011;8810;48.680;8.894;2023-03-14T01:27:52;0.83;;;0.40;;
17384;SDS011;8810;48.680;8.894;2023-03-14T01:30:19;0.50;;;0.50;;
17384;SDS011;8810;48.680;8.894;2023-03-14T01:32:46;0.40;;;0.40;;
17384;SDS011;8810;48.680;8.894;2023-03-14T01:35:14;0.30;;;0.30;;
17384;SDS011;8810;48.680;8.894;2023-03-14T01:37:41;0.77;;;0.40;;
17384;SDS011;8810;48.680;8.894;2023-03-14T01:40:09;0.57;;;0.40;;
17384;SDS011;8810;48.680;8.894;2023-03-14T01:42:43;0.40;;;0.30;;
17384;SDS011;8810;48.680;8.894;2023-03-14T01:48:11;0.53;;;0.20;;
17384;SDS011;8810;48.680;8.894;2023-03-14T01:50:39;1.03;;;0.30;;
17384;SDS011;8810;48.680;8.894;2023-03-14T01:53:06;2.47;;;0.40;;
17384;SDS011;8810;48.680;8.894;2023-03-14T01:55:33;1.07;;;0.47;;
17384;SDS011;8810;48.680;8.894;2023-03-14T01:58:00;0.50;;;0.40;;
17384;SDS011;8810;48.680;8.894;2023-03-14T02:00:30;0.93;;;0.40;;
17384;SDS011;8810;48.680;8.894;2023-03-14T02:02:58;0.97;;;0.40;;
17384;SDS011;8810;48.680;8.894;2023-03-14T02:05:32;0.40;;;0.37;;
17384;SDS011;8810;48.680;8.894;2023-03-14T02:08:03;0.40;;;0.40;;
17384;SDS011;8810;48.680;8.894;2023-03-14T02:10:35;0.87;;;0.40;;
17384;SDS011;8810;48.680;8.894;2023-03-14T02:13:04;0.30;;;0.30;;
17384;SDS011;8810;48.680;8.894;2023-03-14T02:15:32;0.70;;;0.30;;
17384;SDS011;8810;48.680;8.894;2023-03-14T02:17:59;0.87;;;0.40;;
17384;SDS011;8810;48.680;8.894;2023-03-14T02:20:30;0.60;;;0.30;;
17384;SDS011;8810;48.680;8.894;2023-03-14T02:23:04;1.13;;;0.30;;
17384;SDS011;8810;48.680;8.894;2023-03-14T02:25:35;0.30;;;0.30;;
17384;SDS011;8810;48.680;8.894;2023-03-14T02:28:09;0.37;;;0.37;;
17384;SDS011;8810;48.680;8.894;2023-03-14T02:30:37;0.50;;;0.37;;
17384;SDS011;8810;48.680;8.894;2023-03-14T02:33:05;0.53;;;0.50;;
17384;SDS011;8810;48.680;8.894;2023-03-14T02:35:35;1.03;;;0.40;;
17384;SDS011;8810;48.680;8.894;2023-03-14T02:38:07;0.83;;;0.43;;
17384;SDS011;8810;48.680;8.894;2023-03-14T02:40:41;2.67;;;0.50;;
17384;SDS011;8810;48.680;8.894;2023-03-14T02:43:08;3.30;;;0.50;;
17384;SDS011;8810;48.680;8.894;2023-03-14T02:45:40;0.83;;;0.30;;
17384;SDS011;8810;48.680;8.894;2023-03-14T02:48:11;1.77;;;0.50;;
17384;SDS011;8810;48.680;8.894;2023-03-14T02:50:41;1.23;;;0.47;;
17384;SDS011;8810;48.680;8.894;2023-03-14T02:53:09;2.20;;;0.50;;
17384;SDS011;8810;48.680;8.894;2023-03-14T02:55:39;1.40;;;0.40;;
17384;SDS011;8810;48.680;8.894;2023-03-14T02:58:11;0.30;;;0.30;;
17384;SDS011;8810;48.680;8.894;2023-03-14T03:00:38;2.13;;;0.57;;
17384;SDS011;8810;48.680;8.894;2023-03-14T03:03:05;1.20;;;0.53;;
17384;SDS011;8810;48.680;8.894;2023-03-14T03:05:32;1.73;;;0.60;;
17384;SDS011;8810;48.680;8.894;2023-03-14T03:07:59;1.27;;;0.70;;
17384;SDS011;8810;48.680;8.894;2023-03-14T03:10:26;1.37;;;0.70;;
17384;SDS011;8810;48.680;8.894;2023-03-14T03:12:53;1.47;;;0.47;;
17384;SDS011;8810;48.680;8.894;2023-03-14T03:15:21;4.37;;;0.60;;
17384;SDS011;8810;48.680;8.894;2023-03-14T03:17:48;2.10;;;0.50;;
17384;SDS011;8810;48.680;8.894;2023-03-14T03:20:15;2.80;;;0.50;;
17384;SDS011;8810;48.680;8.894;2023-03-14T03:22:42;1.77;;;0.50;;
17384;SDS011;8810;48.680;8.894;2023-03-14T03:25:09;3.00;;;0.57;;
17384;SDS011;8810;48.680;8.894;2023-03-14T03:27:36;1.47;;;0.60;;
17384;SDS011;8810;48.680;8.894;2023-03-14T03:30:04;2.17;;;0.90;;
17384;SDS011;8810;48.680;8.894;2023-03-14T03:32:33;2.17;;;0.57;;
17384;SDS011;8810;48.680;8.894;2023-03-14T03:35:00;1.27;;;0.50;;
17384;SDS011;8810;48.680;8.894;2023-03-14T03:37:29;1.47;;;0.50;;
17384;SDS011;8810;48.680;8.894;2023-03-14T03:39:56;4.43;;;0.63;;
17384;SDS011;8810;48.680;8.894;2023-03-14T03:42:23;3.90;;;1.70;;
17384;SDS011;8810;48.680;8.894;2023-03-14T03:44:49;3.43;;;0.63;;
17384;SDS011;8810;48.680;8.894;2023-03-14T03:47:16;3.13;;;0.60;;
17384;SDS011;8810;48.680;8.894;2023-03-14T03:49:44;3.20;;;0.60;;
17384;SDS011;8810;48.680;8.894;2023-03-14T03:52:11;2.60;;;0.70;;
17384;SDS011;8810;48.680;8.894;2023-03-14T03:54:38;2.40;;;0.60;;
17384;SDS011;8810;48.680;8.894;2023-03-14T03:57:05;3.80;;;0.63;;
17384;SDS011;8810;48.680;8.894;2023-03-14T03:59:31;3.13;;;0.70;;
17384;SDS011;8810;48.680;8.894;2023-03-14T04:01:58;2.90;;;0.60;;
17384;SDS011;8810;48.680;8.894;2023-03-14T04:04:25;2.07;;;0.50;;
17384;SDS011;8810;48.680;8.894;2023-03-14T04:06:53;2.27;;;0.63;;
17384;SDS011;8810;48.680;8.894;2023-03-14T04:09:20;3.20;;;0.57;;
17384;SDS011;8810;48.680;8.894;2023-03-14T04:11:46;2.93;;;0.60;;
17384;SDS011;8810;48.680;8.894;2023-03-14T04:14:13;3.10;;;0.60;;
17384;SDS011;8810;48.680;8.894;2023-03-14T04:16:40;2.80;;;0.70;;
17384;SDS011;8810;48.680;8.894;2023-03-14T04:19:07;1.30;;;0.50;;
17384;SDS011;8810;48.680;8.894;2023-03-14T04:21:34;3.10;;;0.60;;
17384;SDS011;8810;48.680;8.894;2023-03-14T04:24:02;5.07;;;0.67;;
17384;SDS011;8810;48.680;8.894;2023-03-14T04:26:29;2.40;;;0.37;;
17384;SDS011;8810;48.680;8.894;2023-03-14T04:28:56;3.87;;;0.60;;
17384;SDS011;8810;48.680;8.894;2023-03-14T04:31:23;2.30;;;0.60;;
17384;SDS011;8810;48.680;8.894;2023-03-14T04:33:50;4.23;;;0.60;;
17384;SDS011;8810;48.680;8.894;2023-03-14T04:36:17;4.80;;;0.60;;
17384;SDS011;8810;48.680;8.894;2023-03-14T04:38:44;2.50;;;0.50;;
17384;SDS011;8810;48.680;8.894;2023-03-14T04:41:12;2.23;;;0.57;;
17384;SDS011;8810;48.680;8.894;2023-03-14T04:43:39;4.20;;;1.00;;
17384;SDS011;8810;48.680;8.894;2023-03-14T04:46:06;1.63;;;0.60;;
17384;SDS011;8810;48.680;8.894;2023-03-14T04:48:33;2.97;;;0.83;;
17384;SDS011;8810;48.680;8.894;2023-03-14T04:51:00;4.00;;;0.70;;
17384;SDS011;8810;48.680;8.894;2023-03-14T04:53:26;2.60;;;0.70;;
17384;SDS011;8810;48.680;8.894;2023-03-14T04:55:54;7.87;;;0.60;;
17384;SDS011;8810;48.680;8.894;2023-03-14T04:58:23;4.07;;;0.67;;
17384;SDS011;8810;48.680;8.894;2023-03-14T05:00:50;3.37;;;0.50;;
17384;SDS011;8810;48.680;8.894;2023-03-14T05:03:18;5.30;;;1.00;;
17384;SDS011;8810;48.680;8.894;2023-03-14T05:05:45;3.13;;;0.67;;
17384;SDS011;8810;48.680;8.894;2023-03-14T05:08:12;1.73;;;0.80;;
17384;SDS011;8810;48.680;8.894;2023-03-14T05:10:39;1.33;;;0.33;;
17384;SDS011;8810;48.680;8.894;2023-03-14T05:13:06;4.70;;;0.40;;
17384;SDS011;8810;48.680;8.894;2023-03-14T05:15:34;3.97;;;0.37;;
17384;SDS011;8810;48.680;8.894;2023-03-14T05:18:01;3.03;;;0.60;;
17384;SDS011;8810;48.680;8.894;2023-03-14T05:20:28;2.63;;;0.50;;
17384;SDS011;8810;48.680;8.894;2023-03-14T05:22:56;2.90;;;0.50;;
17384;SDS011;8810;48.680;8.894;2023-03-14T05:25:23;3.60;;;0.60;;
17384;SDS011;8810;48.680;8.894;2023-03-14T05:27:50;4.10;;;0.40;;
17384;SDS011;8810;48.680;8.894;2023-03-14T05:30:19;1.97;;;0.60;;
17384;SDS011;8810;48.680;8.894;2023-03-14T05:32:49;1.77;;;0.30;;
17384;SDS011;8810;48.680;8.894;2023-03-14T05:35:15;0.57;;;0.23;;
17384;SDS011;8810;48.680;8.894;2023-03-14T05:37:42;4.33;;;0.50;;
17384;SDS011;8810;48.680;8.894;2023-03-14T05:40:10;1.47;;;0.40;;
17384;SDS011;8810;48.680;8.894;2023-03-14T05:42:37;1.60;;;0.40;;
17384;SDS011;8810;48.680;8.894;2023-03-14T05:45:04;0.70;;;0.33;;
17384;SDS011;8810;48.680;8.894;2023-03-14T05:47:32;3.27;;;0.67;;
17384;SDS011;8810;48.680;8.894;2023-03-14T05:50:00;1.33;;;0.37;;
17384;SDS011;8810;48.680;8.894;2023-03-14T05:52:27;1.00;;;0.20;;
17384;SDS011;8810;48.680;8.894;2023-03-14T05:54:54;1.60;;;0.60;;
17384;SDS011;8810;48.680;8.894;2023-03-14T05:57:21;2.63;;;0.40;;
17384;SDS011;8810;48.680;8.894;2023-03-14T05:59:47;4.97;;;0.60;;
17384;SDS011;8810;48.680;8.894;2023-03-14T06:02:14;2.37;;;0.57;;
17384;SDS011;8810;48.680;8.894;2023-03-14T06:04:41;2.70;;;0.57;;
17384;SDS011;8810;48.680;8.894;2023-03-14T06:07:09;1.53;;;0.63;;
17384;SDS011;8810;48.680;8.894;2023-03-14T06:09:36;2.77;;;0.50;;
17384;SDS011;8810;48.680;8.894;2023-03-14T06:12:04;3.00;;;0.47;;
17384;SDS011;8810;48.680;8.894;2023-03-14T06:14:31;2.73;;;0.83;;
17384;SDS011;8810;48.680;8.894;2023-03-14T06:16:58;1.20;;;0.50;;
17384;SDS011;8810;48.680;8.894;2023-03-14T06:19:25;1.90;;;0.40;;
17384;SDS011;8810;48.680;8.894;2023-03-14T06:21:52;5.93;;;0.50;;
17384;SDS011;8810;48.680;8.894;2023-03-14T06:24:20;3.50;;;0.40;;
17384;SDS011;8810;48.680;8.894;2023-03-14T06:26:47;4.00;;;0.90;;
17384;SDS011;8810;48.680;8.894;2023-03-14T06:29:14;4.23;;;0.73;;
17384;SDS011;8810;48.680;8.894;2023-03-14T06:31:41;4.27;;;0.53;;
17384;SDS011;8810;48.680;8.894;2023-03-14T06:34:08;2.37;;;0.40;;
17384;SDS011;8810;48.680;8.894;2023-03-14T06:36:35;2.23;;;0.30;;
17384;SDS011;8810;48.680;8.894;2023-03-14T06:39:02;3.47;;;0.60;;
17384;SDS011;8810;48.680;8.894;2023-03-14T06:41:30;0.60;;;0.33;;
17384;SDS011;8810;48.680;8.894;2023-03-14T06:43:57;3.77;;;0.40;;
17384;SDS011;8810;48.680;8.894;2023-03-14T06:46:24;0.60;;;0.40;;
17384;SDS011;8810;48.680;8.894;2023-03-14T06:48:51;1.63;;;0.50;;
17384;SDS011;8810;48.680;8.894;2023-03-14T06:51:18;0.97;;;0.40;;
17384;SDS011;8810;48.680;8.894;2023-03-14T06:53:45;1.00;;;0.37;;
17384;SDS011;8810;48.680;8.894;2023-03-14T06:56:12;1.97;;;0.50;;
17384;SDS011;8810;48.680;8.894;2023-03-14T06:58:40;1.47;;;0.50;;
17384;SDS011;8810;48.680;8.894;2023-03-14T07:01:11;1.40;;;0.43;;
17384;SDS011;8810;48.680;8.894;2023-03-14T07:03:47;2.90;;;0.60;;
17384;SDS011;8810;48.680;8.894;2023-03-14T07:06:14;2.90;;;0.70;;
17384;SDS011;8810;48.680;8.894;2023-03-14T07:08:40;1.13;;;0.40;;
17384;SDS011;8810;48.680;8.894;2023-03-14T07:11:09;2.43;;;0.50;;
17384;SDS011;8810;48.680;8.894;2023-03-14T07:13:36;1.23;;;0.40;;
17384;SDS011;8810;48.680;8.894;2023-03-14T07:16:05;0.50;;;0.27;;
17384;SDS011;8810;48.680;8.894;2023-03-14T07:18:33;0.60;;;0.20;;
17384;SDS011;8810;48.680;8.894;2023-03-14T07:21:02;2.67;;;0.27;;
17384;SDS011;8810;48.680;8.894;2023-03-14T07:23:29;1.03;;;0.40;;
17384;SDS011;8810;48.680;8.894;2023-03-14T07:25:56;0.77;;;0.50;;
17384;SDS011;8810;48.680;8.894;2023-03-14T07:28:23;1.07;;;0.40;;
17384;SDS011;8810;48.680;8.894;2023-03-14T07:30:50;1.37;;;0.20;;
17384;SDS011;8810;48.680;8.894;2023-03-14T07:33:18;3.97;;;0.37;;
17384;SDS011;8810;48.680;8.894;2023-03-14T07:35:46;0.97;;;0.40;;
17384;SDS011;8810;48.680;8.894;2023-03-14T07:38:13;2.43;;;0.20;;
17384;SDS011;8810;48.680;8.894;2023-03-14T07:40:40;1.03;;;0.20;;
17384;SDS011;8810;48.680;8.894;2023-03-14T07:43:07;1.43;;;0.20;;
17384;SDS011;8810;48.680;8.894;2023-03-14T07:45:34;1.27;;;0.20;;
17384;SDS011;8810;48.680;8.894;2023-03-14T07:48:01;1.90;;;0.20;;
17384;SDS011;8810;48.680;8.894;2023-03-14T07:50:29;2.40;;;0.30;;
17384;SDS011;8810;48.680;8.894;2023-03-14T07:52:56;1.13;;;0.30;;
17384;SDS011;8810;48.680;8.894;2023-03-14T07:55:23;3.80;;;0.20;;
17384;SDS011;8810;48.680;8.894;2023-03-14T07:57:50;1.10;;;0.30;;
17384;SDS011;8810;48.680;8.894;2023-03-14T08:00:17;0.73;;;0.50;;
17384;SDS011;8810;48.680;8.894;2023-03-14T08:02:44;1.63;;;0.20;;
17384;SDS011;8810;48.680;8.894;2023-03-14T08:05:11;0.50;;;0.20;;
17384;SDS011;8810;48.680;8.894;2023-03-14T08:07:39;0.53;;;0.10;;
17384;SDS011;8810;48.680;8.894;2023-03-14T08:10:07;2.37;;;0.40;;
17384;SDS011;8810;48.680;8.894;2023-03-14T08:12:35;0.77;;;0.30;;
17384;SDS011;8810;48.680;8.894;2023-03-14T08:15:02;0.33;;;0.27;;
17384;SDS011;8810;48.680;8.894;2023-03-14T08:17:29;1.67;;;0.50;;
17384;SDS011;8810;48.680;8.894;2023-03-14T08:19:56;0.90;;;0.30;;
17384;SDS011;8810;48.680;8.894;2023-03-14T08:22:23;0.60;;;0.20;;
17384;SDS011;8810;48.680;8.894;2023-03-14T08:24:51;1.77;;;0.50;;
17384;SDS011;8810;48.680;8.894;2023-03-14T08:27:18;0.50;;;0.30;;
17384;SDS011;8810;48.680;8.894;2023-03-14T08:29:45;0.40;;;0.20;;
17384;SDS011;8810;48.680;8.894;2023-03-14T08:32:12;1.00;;;0.23;;
17384;SDS011;8810;48.680;8.894;2023-03-14T08:34:38;0.33;;;0.20;;
17384;SDS011;8810;48.680;8.894;2023-03-14T08:37:05;0.60;;;0.20;;
17384;SDS011;8810;48.680;8.894;2023-03-14T08:39:32;1.50;;;0.30;;
17384;SDS011;8810;48.680;8.894;2023-03-14T08:42:00;1.47;;;0.20;;
17384;SDS011;8810;48.680;8.894;2023-03-14T08:44:28;0.60;;;0.17;;
17384;SDS011;8810;48.680;8.894;2023-03-14T08:46:55;0.67;;;0.20;;
17384;SDS011;8810;48.680;8.894;2023-03-14T08:49:22;0.30;;;0.30;;
17384;SDS011;8810;48.680;8.894;2023-03-14T08:51:49;2.10;;;0.20;;
17384;SDS011;8810;48.680;8.894;2023-03-14T08:54:16;1.93;;;0.33;;
17384;SDS011;8810;48.680;8.894;2023-03-14T08:56:43;1.03;;;0.20;;
17384;SDS011;8810;48.680;8.894;2023-03-14T08:59:12;0.97;;;0.20;;
17384;SDS011;8810;48.680;8.894;2023-03-14T09:01:39;0.60;;;0.40;;
17384;SDS011;8810;48.680;8.894;2023-03-14T09:04:06;0.27;;;0.20;;
17384;SDS011;8810;48.680;8.894;2023-03-14T09:06:33;1.00;;;0.30;;
17384;SDS011;8810;48.680;8.894;2023-03-14T09:09:00;1.77;;;0.20;;
17384;SDS011;8810;48.680;8.894;2023-03-14T09:11:27;0.80;;;0.40;;
17384;SDS011;8810;48.680;8.894;2023-03-14T09:13:54;0.73;;;0.30;;
17384;SDS011;8810;48.680;8.894;2023-03-14T09:16:22;0.37;;;0.20;;
17384;SDS011;8810;48.680;8.894;2023-03-14T09:18:49;0.30;;;0.10;;
17384;SDS011;8810;48.680;8.894;2023-03-14T09:21:19;0.50;;;0.20;;
17384;SDS011;8810;48.680;8.894;2023-03-14T09:23:46;0.23;;;0.20;;
17384;SDS011;8810;48.680;8.894;2023-03-14T09:26:13;0.57;;;0.30;;
17384;SDS011;8810;48.680;8.894;2023-03-14T09:28:40;0.63;;;0.27;;
17384;SDS011;8810;48.680;8.894;2023-03-14T09:31:08;1.17;;;0.20;;
17384;SDS011;8810;48.680;8.894;2023-03-14T09:33:37;0.20;;;0.20;;
17384;SDS011;8810;48.680;8.894;2023-03-14T09:36:05;0.50;;;0.20;;
17384;SDS011;8810;48.680;8.894;2023-03-14T09:38:33;0.77;;;0.40;;
17384;SDS011;8810;48.680;8.894;2023-03-14T09:41:00;0.33;;;0.10;;
17384;SDS011;8810;48.680;8.894;2023-03-14T09:43:30;1.53;;;0.17;;
17384;SDS011;8810;48.680;8.894;2023-03-14T09:45:59;0.83;;;0.30;;
17384;SDS011;8810;48.680;8.894;2023-03-14T09:48:29;0.20;;;0.20;;
17384;SDS011;8810;48.680;8.894;2023-03-14T09:51:01;0.30;;;0.20;;
17384;SDS011;8810;48.680;8.894;2023-03-14T09:53:32;0.27;;;0.10;;
17384;SDS011;8810;48.680;8.894;2023-03-14T09:56:07;0.30;;;0.30;;
17384;SDS011;8810;48.680;8.894;2023-03-14T09:58:38;1.03;;;0.30;;
17384;SDS011;8810;48.680;8.894;2023-03-14T10:01:08;1.60;;;0.37;;
17384;SDS011;8810;48.680;8.894;2023-03-14T10:03:40;0.50;;;0.30;;
17384;SDS011;8810;48.680;8.894;2023-03-14T10:06:12;0.87;;;0.20;;
17384;SDS011;8810;48.680;8.894;2023-03-14T10:08:40;0.10;;;0.10;;
17384;SDS011;8810;48.680;8.894;2023-03-14T10:11:10;0.37;;;0.20;;
17384;SDS011;8810;48.680;8.894;2023-03-14T10:13:47;0.70;;;0.20;;
17384;SDS011;8810;48.680;8.894;2023-03-14T10:16:15;0.00;;;0.00;;
17384;SDS011;8810;48.680;8.894;2023-03-14T10:18:44;1.20;;;0.20;;
17384;SDS011;8810;48.680;8.894;2023-03-14T10:21:20;0.30;;;0.20;;
17384;SDS011;8810;48.680;8.894;2023-03-14T10:23:52;2.13;;;0.10;;
17384;SDS011;8810;48.680;8.894;2023-03-14T10:26:23;0.77;;;0.17;;
17384;SDS011;8810;48.680;8.894;2023-03-14T10:31:22;1.13;;;0.30;;
17384;SDS011;8810;48.680;8.894;2023-03-14T10:33:58;0.60;;;0.20;;
17384;SDS011;8810;48.680;8.894;2023-03-14T10:36:28;0.20;;;0.13;;
17384;SDS011;8810;48.680;8.894;2023-03-14T10:38:57;0.40;;;0.10;;
17384;SDS011;8810;48.680;8.894;2023-03-14T10:41:31;0.90;;;0.33;;
17384;SDS011;8810;48.680;8.894;2023-03-14T10:43:59;0.13;;;0.10;;
17384;SDS011;8810;48.680;8.894;2023-03-14T10:46:30;0.53;;;0.10;;
17384;SDS011;8810;48.680;8.894;2023-03-14T10:48:59;0.10;;;0.10;;
17384;SDS011;8810;48.680;8.894;2023-03-14T10:51:32;0.03;;;0.03;;
17384;SDS011;8810;48.680;8.894;2023-03-14T10:54:00;1.27;;;0.17;;
17384;SDS011;8810;48.680;8.894;2023-03-14T10:56:33;0.30;;;0.10;;
17384;SDS011;8810;48.680;8.894;2023-03-14T10:59:01;0.13;;;0.10;;
17384;SDS011;8810;48.680;8.894;2023-03-14T11:01:32;0.80;;;0.20;;
17384;SDS011;8810;48.680;8.894;2023-03-14T11:04:08;0.20;;;0.20;;
17384;SDS011;8810;48.680;8.894;2023-03-14T11:06:48;0.00;;;0.00;;
17384;SDS011;8810;48.680;8.894;2023-03-14T11:09:24;0.13;;;0.00;;
17384;SDS011;8810;48.680;8.894;2023-03-14T11:11:56;0.20;;;0.10;;
17384;SDS011;8810;48.680;8.894;2023-03-14T11:14:35;0.30;;;0.20;;
17384;SDS011;8810;48.680;8.894;2023-03-14T11:17:07;0.50;;;0.33;;
17384;SDS011;8810;48.680;8.894;2023-03-14T11:19:53;1.37;;;0.60;;
17384;SDS011;8810;48.680;8.894;2023-03-14T11:22:33;1.87;;;0.37;;
17384;SDS011;8810;48.680;8.894;2023-03-14T11:25:07;0.73;;;0.60;;
17384;SDS011;8810;48.680;8.894;2023-03-14T11:27:47;0.10;;;0.10;;
17384;SDS011;8810;48.680;8.894;2023-03-14T11:30:23;0.90;;;0.27;;
17384;SDS011;8810;48.680;8.894;2023-03-14T11:32:57;0.30;;;0.10;;
17384;SDS011;8810;48.680;8.894;2023-03-14T11:35:30;0.10;;;0.07;;
17384;SDS011;8810;48.680;8.894;2023-03-14T11:38:03;0.03;;;0.03;;
17384;SDS011;8810;48.680;8.894;2023-03-14T11:40:37;0.10;;;0.10;;
17384;SDS011;8810;48.680;8.894;2023-03-14T11:43:06;0.10;;;0.10;;
17384;SDS011;8810;48.680;8.894;2023-03-14T11:45:39;0.10;;;0.10;;
17384;SDS011;8810;48.680;8.894;2023-03-14T11:48:16;0.20;;;0.10;;
17384;SDS011;8810;48.680;8.894;2023-03-14T11:50:49;0.20;;;0.10;;
17384;SDS011;8810;48.680;8.894;2023-03-14T11:53:25;0.10;;;0.03;;
17384;SDS011;8810;48.680;8.894;2023-03-14T11:56:04;0.10;;;0.10;;
17384;SDS011;8810;48.680;8.894;2023-03-14T11:58:41;0.13;;;0.10;;
17384;SDS011;8810;48.680;8.894;2023-03-14T12:01:15;0.30;;;0.10;;
17384;SDS011;8810;48.680;8.894;2023-03-14T12:03:49;0.10;;;0.10;;
17384;SDS011;8810;48.680;8.894;2023-03-14T12:06:22;1.07;;;0.10;;
17384;SDS011;8810;48.680;8.894;2023-03-14T12:08:53;0.30;;;0.10;;
17384;SDS011;8810;48.680;8.894;2023-03-14T12:11:30;0.00;;;0.00;;
17384;SDS011;8810;48.680;8.894;2023-03-14T12:14:00;0.23;;;0.10;;
17384;SDS011;8810;48.680;8.894;2023-03-14T12:16:35;0.20;;;0.20;;
17384;SDS011;8810;48.680;8.894;2023-03-14T12:22:01;0.37;;;0.30;;
17384;SDS011;8810;48.680;8.894;2023-03-14T12:24:47;0.40;;;0.20;;
17384;SDS011;8810;48.680;8.894;2023-03-14T12:30:14;0.50;;;0.20;;
17384;SDS011;8810;48.680;8.894;2023-03-14T12:33:11;0.70;;;0.20;;
17384;SDS011;8810;48.680;8.894;2023-03-14T12:35:45;0.70;;;0.40;;
17384;SDS011;8810;48.680;8.894;2023-03-14T12:38:14;1.13;;;0.40;;
17384;SDS011;8810;48.680;8.894;2023-03-14T12:40:50;0.30;;;0.20;;
17384;SDS011;8810;48.680;8.894;2023-03-14T12:43:25;1.80;;;0.20;;
17384;SDS011;8810;48.680;8.894;2023-03-14T12:48:46;0.73;;;0.30;;
17384;SDS011;8810;48.680;8.894;2023-03-14T12:51:15;0.50;;;0.20;;
17384;SDS011;8810;48.680;8.894;2023-03-14T12:53:53;0.40;;;0.20;;
17384;SDS011;8810;48.680;8.894;2023-03-14T12:56:38;1.23;;;0.30;;
17384;SDS011;8810;48.680;8.894;2023-03-14T12:59:32;0.80;;;0.30;;
17384;SDS011;8810;48.680;8.894;2023-03-14T13:02:01;2.93;;;0.40;;
17384;SDS011;8810;48.680;8.894;2023-03-14T13:04:45;1.13;;;0.30;;
17384;SDS011;8810;48.680;8.894;2023-03-14T13:07:28;2.07;;;0.30;;
17384;SDS011;8810;48.680;8.894;2023-03-14T13:10:00;0.43;;;0.30;;
17384;SDS011;8810;48.680;8.894;2023-03-14T13:12:37;2.13;;;0.90;;
17384;SDS011;8810;48.680;8.894;2023-03-14T13:15:13;2.13;;;0.90;;
17384;SDS011;8810;48.680;8.894;2023-03-14T13:17:45;1.60;;;0.30;;
17384;SDS011;8810;48.680;8.894;2023-03-14T13:20:15;1.53;;;0.30;;
17384;SDS011;8810;48.680;8.894;2023-03-14T13:22:47;2.43;;;0.50;;
17384;SDS011;8810;48.680;8.894;2023-03-14T13:25:14;6.47;;;0.50;;
17384;SDS011;8810;48.680;8.894;2023-03-14T13:27:44;2.00;;;0.50;;
17384;SDS011;8810;48.680;8.894;2023-03-14T13:30:15;1.80;;;0.40;;
17384;SDS011;8810;48.680;8.894;2023-03-14T13:32:45;3.23;;;0.40;;
17384;SDS011;8810;48.680;8.894;2023-03-14T13:35:14;1.77;;;0.37;;
17384;SDS011;8810;48.680;8.894;2023-03-14T13:37:43;2.67;;;0.30;;
17384;SDS011;8810;48.680;8.894;2023-03-14T13:40:18;1.53;;;0.30;;
17384;SDS011;8810;48.680;8.894;2023-03-14T13:42:48;0.90;;;0.47;;
17384;SDS011;8810;48.680;8.894;2023-03-14T13:45:15;0.77;;;0.33;;
17384;SDS011;8810;48.680;8.894;2023-03-14T13:47:42;2.90;;;0.70;;
17384;SDS011;8810;48.680;8.894;2023-03-14T13:50:14;1.60;;;0.37;;
17384;SDS011;8810;48.680;8.894;2023-03-14T13:52:42;0.93;;;0.30;;
17384;SDS011;8810;48.680;8.894;2023-03-14T13:55:14;0.93;;;0.43;;
17384;SDS011;8810;48.680;8.894;2023-03-14T13:57:42;0.87;;;0.40;;
17384;SDS011;8810;48.680;8.894;2023-03-14T14:00:17;1.70;;;0.43;;
17384;SDS011;8810;48.680;8.894;2023-03-14T14:02:45;0.70;;;0.30;;
17384;SDS011;8810;48.680;8.894;2023-03-14T14:05:14;2.43;;;0.53;;
17384;SDS011;8810;48.680;8.894;2023-03-14T14:07:42;0.47;;;0.30;;
17384;SDS011;8810;48.680;8.894;2023-03-14T14:10:10;1.33;;;0.30;;
17384;SDS011;8810;48.680;8.894;2023-03-14T14:12:39;0.60;;;0.20;;
17384;SDS011;8810;48.680;8.894;2023-03-14T14:15:15;1.90;;;0.40;;
17384;SDS011;8810;48.680;8.894;2023-03-14T14:17:47;2.60;;;0.70;;
17384;SDS011;8810;48.680;8.894;2023-03-14T14:20:18;2.17;;;0.57;;
17384;SDS011;8810;48.680;8.894;2023-03-14T14:22:48;0.93;;;0.47;;
17384;SDS011;8810;48.680;8.894;2023-03-14T14:25:15;1.50;;;0.30;;
17384;SDS011;8810;48.680;8.894;2023-03-14T14:27:43;0.67;;;0.27;;
17384;SDS011;8810;48.680;8.894;2023-03-14T14:33:15;1.53;;;0.50;;
17384;SDS011;8810;48.680;8.894;2023-03-14T14:35:49;3.40;;;0.40;;
17384;SDS011;8810;48.680;8.894;2023-03-14T14:38:20;1.80;;;0.40;;
17384;SDS011;8810;48.680;8.894;2023-03-14T14:40:48;4.33;;;1.47;;
17384;SDS011;8810;48.680;8.894;2023-03-14T14:43:17;1.50;;;0.50;;
17384;SDS011;8810;48.680;8.894;2023-03-14T14:45:49;1.23;;;0.50;;
17384;SDS011;8810;48.680;8.894;2023-03-14T14:48:19;1.63;;;0.60;;
17384;SDS011;8810;48.680;8.894;2023-03-14T14:50:54;1.20;;;0.47;;
17384;SDS011;8810;48.680;8.894;2023-03-14T14:53:24;1.53;;;0.50;;
17384;SDS011;8810;48.680;8.894;2023-03-14T14:55:55;2.07;;;0.47;;
17384;SDS011;8810;48.680;8.894;2023-03-14T14:58:24;2.47;;;0.70;;
17384;SDS011;8810;48.680;8.894;2023-03-14T15:00:54;2.23;;;0.50;;
17384;SDS011;8810;48.680;8.894;2023-03-14T15:03:25;1.50;;;0.40;;
17384;SDS011;8810;48.680;8.894;2023-03-14T15:05:54;3.37;;;0.40;;
17384;SDS011;8810;48.680;8.894;2023-03-14T15:08:21;1.70;;;0.50;;
17384;SDS011;8810;48.680;8.894;2023-03-14T15:10:49;3.53;;;0.50;;
17384;SDS011;8810;48.680;8.894;2023-03-14T15:13:16;0.30;;;0.27;;
17384;SDS011;8810;48.680;8.894;2023-03-14T15:15:43;3.00;;;0.77;;
17384;SDS011;8810;48.680;8.894;2023-03-14T15:18:13;1.87;;;0.67;;
17384;SDS011;8810;48.680;8.894;2023-03-14T15:20:42;1.63;;;0.60;;
17384;SDS011;8810;48.680;8.894;2023-03-14T15:23:09;1.30;;;0.50;;
17384;SDS011;8810;48.680;8.894;2023-03-14T15:25:37;4.90;;;0.83;;
17384;SDS011;8810;48.680;8.894;2023-03-14T15:28:08;1.33;;;0.40;;
17384;SDS011;8810;48.680;8.894;2023-03-14T15:30:41;2.00;;;0.60;;